createdAt,value
2018-09-25T00:02:10.837Z,15.70
2018-09-25T00:04:44.503Z,12.03
2018-09-25T00:07:18.292Z,13.23
2018-09-25T00:09:52.014Z,16.47
2018-09-25T00:12:25.914Z,14.23
2018-09-25T00:14:59.627Z,17.20
2018-09-25T00:17:33.419Z,16.57
2018-09-25T00:20:07.222Z,14.50
2018-09-25T00:22:41.054Z,16.50
2018-09-25T00:25:14.911Z,13.43
2018-09-25T00:27:48.916Z,15.93
2018-09-25T00:30:22.796Z,19.77
2018-09-25T00:32:56.609Z,17.20
2018-09-25T00:35:30.374Z,11.67
2018-09-25T00:38:04.262Z,15.83
2018-09-25T00:40:37.955Z,20.60
2018-09-25T00:43:11.905Z,16.73
2018-09-25T00:45:46.121Z,21.47
2018-09-25T00:48:20.647Z,15.07
2018-09-25T00:50:55.278Z,15.83
2018-09-25T00:53:29.932Z,17.23
2018-09-25T00:56:03.625Z,14.03
2018-09-25T00:58:38.803Z,21.90
2018-09-25T01:01:12.767Z,15.43
2018-09-25T01:03:46.520Z,16.63
2018-09-25T01:06:20.746Z,16.70
2018-09-25T01:08:54.562Z,14.97
2018-09-25T01:11:28.602Z,17.27
2018-09-25T01:14:02.347Z,13.47
2018-09-25T01:16:36.197Z,14.73
2018-09-25T01:19:10.096Z,17.03
2018-09-25T01:21:43.975Z,17.90
2018-09-25T01:24:18.219Z,16.87
2018-09-25T01:26:52.169Z,15.50
2018-09-25T01:29:25.935Z,27.17
2018-09-25T01:32:00.212Z,20.20
2018-09-25T01:34:33.798Z,14.73
2018-09-25T01:37:07.656Z,19.27
2018-09-25T01:39:41.476Z,17.00
2018-09-25T01:42:15.369Z,17.20
2018-09-25T01:44:49.457Z,21.63
2018-09-25T01:47:23.239Z,16.33
2018-09-25T01:49:56.971Z,19.10
2018-09-25T01:52:30.877Z,22.60
2018-09-25T01:55:05.125Z,16.57
2018-09-25T01:57:39.049Z,20.23
2018-09-25T02:00:12.913Z,19.93
2018-09-25T02:02:47.265Z,19.17
2018-09-25T02:05:20.976Z,15.00
2018-09-25T02:07:54.755Z,20.13
2018-09-25T02:10:28.646Z,20.80
2018-09-25T02:13:03.152Z,19.67
2018-09-25T02:15:37.036Z,17.97
2018-09-25T02:18:11.230Z,17.80
2018-09-25T02:20:45.142Z,18.43
2018-09-25T02:23:18.913Z,15.80
2018-09-25T02:25:52.696Z,16.63
2018-09-25T02:28:26.548Z,17.07
2018-09-25T02:31:00.350Z,21.03
2018-09-25T02:33:34.036Z,19.93
2018-09-25T02:36:09.340Z,19.80
2018-09-25T02:38:43.275Z,24.27
2018-09-25T02:41:17.125Z,17.23
2018-09-25T02:43:50.778Z,19.43
2018-09-25T02:46:24.613Z,19.13
2018-09-25T02:48:58.424Z,23.20
2018-09-25T02:51:32.095Z,21.23
2018-09-25T02:54:05.938Z,18.47
2018-09-25T02:56:39.615Z,18.70
2018-09-25T02:59:13.339Z,19.77
2018-09-25T03:01:47.137Z,19.73
2018-09-25T03:04:20.865Z,24.97
2018-09-25T03:06:54.991Z,21.57
2018-09-25T03:09:28.895Z,19.20
2018-09-25T03:12:02.548Z,17.33
2018-09-25T03:14:36.274Z,18.73
2018-09-25T03:17:10.003Z,18.90
2018-09-25T03:19:43.879Z,22.70
2018-09-25T03:22:17.452Z,19.80
2018-09-25T03:24:51.185Z,19.83
2018-09-25T03:27:24.978Z,18.80
2018-09-25T03:29:58.819Z,18.43
2018-09-25T03:32:32.401Z,17.43
2018-09-25T03:35:06.210Z,17.23
2018-09-25T03:37:39.841Z,16.27
2018-09-25T03:40:13.534Z,16.77
2018-09-25T03:42:47.102Z,16.93
2018-09-25T03:45:21.069Z,17.17
2018-09-25T03:47:54.713Z,15.57
2018-09-25T03:50:28.602Z,14.70
2018-09-25T03:53:02.351Z,17.37
2018-09-25T03:55:36.147Z,20.03
2018-09-25T03:58:09.853Z,17.07
2018-09-25T04:00:43.698Z,19.77
2018-09-25T04:03:17.563Z,15.70
2018-09-25T04:05:51.323Z,17.70
2018-09-25T04:08:25.047Z,18.70
2018-09-25T04:10:58.857Z,20.27
2018-09-25T04:13:32.831Z,20.00
2018-09-25T04:16:06.527Z,19.13
2018-09-25T04:18:40.396Z,18.73
2018-09-25T04:21:14.160Z,20.03
2018-09-25T04:23:47.991Z,21.13
2018-09-25T04:26:21.818Z,21.60
2018-09-25T04:28:55.595Z,16.47
2018-09-25T04:31:29.294Z,19.60
2018-09-25T04:34:03.022Z,14.97
2018-09-25T04:36:36.912Z,20.47
2018-09-25T04:39:13.583Z,15.77
2018-09-25T04:41:47.793Z,20.27
2018-09-25T04:44:21.628Z,20.70
2018-09-25T04:46:55.349Z,16.03
2018-09-25T04:49:29.232Z,17.43
2018-09-25T04:52:03.612Z,24.30
2018-09-25T04:54:37.230Z,23.47
2018-09-25T04:57:11.017Z,28.63
2018-09-25T04:59:44.786Z,28.53
2018-09-25T05:02:18.807Z,27.13
2018-09-25T05:04:52.716Z,22.40
2018-09-25T05:07:27.189Z,21.27
2018-09-25T05:10:01.059Z,21.20
2018-09-25T05:12:34.859Z,24.57
2018-09-25T05:15:09.308Z,26.37
2018-09-25T05:17:42.984Z,21.03
2018-09-25T05:20:16.946Z,20.37
2018-09-25T05:22:50.754Z,29.53
2018-09-25T05:25:24.548Z,33.97
2018-09-25T05:27:58.364Z,38.77
2018-09-25T05:30:32.185Z,38.10
2018-09-25T05:33:05.958Z,49.07
2018-09-25T05:35:39.747Z,44.10
2018-09-25T05:38:14.003Z,54.47
2018-09-25T05:40:47.972Z,52.13
2018-09-25T05:43:21.725Z,52.37
2018-09-25T05:45:55.717Z,53.10
2018-09-25T05:48:29.591Z,48.43
2018-09-25T05:51:03.692Z,52.33
2018-09-25T05:53:38.008Z,50.30
2018-09-25T05:56:12.147Z,52.10
2018-09-25T05:58:46.036Z,48.73
2018-09-25T06:01:20.057Z,52.63
2018-09-25T06:03:53.841Z,48.63
2018-09-25T06:06:27.486Z,55.00
2018-09-25T06:09:02.064Z,53.47
2018-09-25T06:11:42.616Z,48.70
2018-09-25T06:14:16.429Z,47.07
2018-09-25T06:16:50.120Z,47.97
2018-09-25T06:19:24.662Z,48.27
2018-09-25T06:21:58.587Z,47.83
2018-09-25T06:24:32.369Z,42.90
2018-09-25T06:27:06.669Z,43.67
2018-09-25T06:29:40.590Z,43.20
2018-09-25T06:32:14.223Z,46.23
2018-09-25T06:34:48.237Z,41.20
2018-09-25T06:37:22.408Z,43.83
2018-09-25T06:39:56.331Z,39.00
2018-09-25T06:42:30.114Z,33.10
2018-09-25T06:45:04.044Z,30.47
2018-09-25T06:47:37.793Z,35.57
2018-09-25T06:50:11.556Z,34.43
2018-09-25T06:52:45.450Z,39.93
2018-09-25T06:55:19.410Z,27.37
2018-09-25T06:57:53.228Z,27.30
2018-09-25T07:00:27.027Z,30.20
2018-09-25T07:03:00.936Z,27.53
2018-09-25T07:05:35.493Z,29.10
2018-09-25T07:08:09.504Z,28.93
2018-09-25T07:10:43.467Z,27.73
2018-09-25T07:13:17.990Z,23.63
2018-09-25T07:15:51.778Z,22.73
2018-09-25T07:18:27.456Z,19.03
2018-09-25T07:21:01.271Z,18.17
2018-09-25T07:23:35.079Z,19.00
2018-09-25T07:26:08.771Z,25.67
2018-09-25T07:28:42.840Z,20.37
2018-09-25T07:31:16.629Z,23.13
2018-09-25T07:33:50.534Z,18.80
2018-09-25T07:36:24.474Z,21.40
2018-09-25T07:38:59.100Z,18.97
2018-09-25T07:41:33.600Z,17.63
2018-09-25T07:44:07.745Z,16.40
2018-09-25T07:46:41.562Z,16.33
2018-09-25T07:49:15.232Z,16.83
2018-09-25T07:51:49.108Z,17.17
2018-09-25T07:54:22.817Z,15.60
2018-09-25T07:56:56.498Z,14.40
2018-09-25T07:59:30.147Z,12.93
2018-09-25T08:02:03.801Z,14.37
2018-09-25T08:04:38.402Z,12.30
2018-09-25T08:07:12.508Z,9.17
2018-09-25T08:09:46.408Z,10.83
2018-09-25T08:12:20.839Z,12.60
2018-09-25T08:14:55.263Z,10.87
2018-09-25T08:17:30.065Z,13.47
2018-09-25T08:20:05.382Z,12.10
2018-09-25T08:22:39.970Z,12.13
2018-09-25T08:25:15.413Z,9.20
2018-09-25T08:27:49.276Z,10.67
2018-09-25T08:30:23.141Z,6.60
2018-09-25T08:32:56.822Z,10.57
2018-09-25T08:35:30.668Z,7.93
2018-09-25T08:38:04.502Z,6.33
2018-09-25T08:40:38.498Z,7.87
2018-09-25T08:43:12.775Z,5.47
2018-09-25T08:45:46.749Z,8.23
2018-09-25T08:48:20.733Z,8.87
2018-09-25T08:50:55.177Z,10.47
2018-09-25T08:53:29.028Z,7.17
2018-09-25T08:56:03.660Z,7.70
2018-09-25T08:58:37.481Z,8.73
2018-09-25T09:01:12.019Z,6.17
2018-09-25T09:03:45.864Z,8.93
2018-09-25T09:06:19.898Z,7.57
2018-09-25T09:08:54.400Z,11.77
2018-09-25T09:11:29.130Z,9.17
2018-09-25T09:14:03.492Z,6.90
2018-09-25T09:16:37.295Z,7.50
2018-09-25T09:19:11.081Z,6.57
2018-09-25T09:21:44.901Z,5.93
2018-09-25T09:24:18.706Z,8.40
2018-09-25T09:26:52.762Z,8.93
2018-09-25T09:29:26.513Z,7.00
2018-09-25T09:32:00.694Z,5.93
2018-09-25T09:34:34.887Z,7.47
2018-09-25T09:37:17.262Z,5.07
2018-09-25T09:39:51.183Z,7.90
2018-09-25T09:42:25.153Z,7.63
2018-09-25T09:45:00.406Z,4.57
2018-09-25T09:47:34.780Z,4.63
2018-09-25T09:50:09.570Z,5.17
2018-09-25T09:52:44.450Z,5.40
2018-09-25T09:55:18.723Z,4.63
2018-09-25T09:58:15.749Z,4.73
2018-09-25T10:00:50.856Z,3.90
2018-09-25T10:03:24.980Z,5.53
2018-09-25T10:08:39.193Z,5.50
2018-09-25T10:11:18.442Z,7.17
2018-09-25T10:14:13.850Z,6.00
2018-09-25T10:16:48.776Z,4.10
2018-09-25T10:19:22.850Z,5.70
2018-09-25T10:21:56.691Z,3.43
2018-09-25T10:24:30.400Z,6.90
2018-09-25T10:27:04.112Z,6.57
2018-09-25T10:29:37.766Z,4.37
2018-09-25T10:32:11.757Z,4.27
2018-09-25T10:34:45.767Z,5.20
2018-09-25T10:37:20.220Z,3.67
2018-09-25T10:39:54.348Z,6.80
2018-09-25T10:42:28.154Z,4.53
2018-09-25T10:45:01.952Z,2.50
2018-09-25T10:47:35.838Z,5.47
2018-09-25T10:50:09.642Z,3.43
2018-09-25T10:52:43.223Z,6.73
2018-09-25T10:55:17.125Z,4.37
2018-09-25T10:57:51.445Z,5.07
2018-09-25T11:00:25.288Z,4.33
2018-09-25T11:02:59.436Z,3.40
2018-09-25T11:05:33.727Z,5.77
2018-09-25T11:08:07.531Z,6.17
2018-09-25T11:10:41.490Z,5.53
2018-09-25T11:13:15.253Z,3.13
2018-09-25T11:15:49.226Z,5.00
2018-09-25T11:18:23.083Z,4.13
2018-09-25T11:20:57.621Z,2.83
2018-09-25T11:23:31.518Z,3.97
2018-09-25T11:26:05.441Z,5.57
2018-09-25T11:28:39.329Z,5.13
2018-09-25T11:31:13.056Z,4.47
2018-09-25T11:33:46.915Z,9.37
2018-09-25T11:36:20.880Z,5.70
2018-09-25T11:38:54.639Z,3.80
2018-09-25T11:41:29.131Z,8.07
2018-09-25T11:44:03.031Z,5.60
2018-09-25T11:46:37.596Z,7.33
2018-09-25T11:49:11.489Z,4.77
2018-09-25T11:51:47.198Z,4.93
2018-09-25T11:54:21.960Z,5.03
2018-09-25T11:56:56.307Z,5.37
2018-09-25T11:59:31.129Z,2.63
2018-09-25T12:02:05.177Z,5.03
2018-09-25T12:04:40.035Z,3.00
2018-09-25T12:07:13.709Z,3.67
2018-09-25T12:09:48.203Z,3.43
2018-09-25T12:12:22.104Z,5.30
2018-09-25T12:14:56.015Z,3.80
2018-09-25T12:17:29.712Z,3.33
2018-09-25T12:20:03.435Z,3.10
2018-09-25T12:22:37.784Z,4.43
2018-09-25T12:25:11.488Z,2.77
2018-09-25T12:27:45.321Z,5.87
2018-09-25T12:30:19.026Z,3.33
2018-09-25T12:32:53.544Z,3.37
2018-09-25T12:35:27.240Z,4.43
2018-09-25T12:38:01.077Z,4.77
2018-09-25T12:40:34.846Z,1.83
2018-09-25T12:43:08.550Z,2.97
2018-09-25T12:45:42.412Z,3.60
2018-09-25T12:48:16.193Z,1.90
2018-09-25T12:50:50.025Z,2.20
2018-09-25T12:53:23.734Z,2.87
2018-09-25T12:55:57.693Z,3.00
2018-09-25T12:58:32.088Z,4.80
2018-09-25T13:01:05.977Z,3.93
2018-09-25T13:03:46.825Z,8.80
2018-09-25T13:06:25.906Z,3.90
2018-09-25T13:08:59.589Z,4.57
2018-09-25T13:11:33.309Z,7.17
2018-09-25T13:14:07.284Z,3.67
2018-09-25T13:16:41.167Z,3.93
2018-09-25T13:19:14.976Z,3.83
2018-09-25T13:21:49.713Z,7.07
2018-09-25T13:24:23.684Z,3.27
2018-09-25T13:26:57.392Z,4.10
2018-09-25T13:29:31.652Z,3.10
2018-09-25T13:32:05.541Z,4.27
2018-09-25T13:34:39.385Z,5.47
2018-09-25T13:37:13.103Z,3.67
2018-09-25T13:39:47.357Z,2.60
2018-09-25T13:42:21.296Z,3.67
2018-09-25T13:44:55.058Z,5.97
2018-09-25T13:47:28.886Z,3.23
2018-09-25T13:50:02.853Z,4.00
2018-09-25T13:52:36.781Z,2.47
2018-09-25T13:55:10.524Z,5.07
2018-09-25T13:57:44.091Z,6.17
2018-09-25T14:00:17.967Z,5.63
2018-09-25T14:02:51.783Z,4.70
2018-09-25T14:05:25.615Z,3.97
2018-09-25T14:07:59.453Z,4.63
2018-09-25T14:10:33.372Z,4.77
2018-09-25T14:13:07.154Z,3.70
2018-09-25T14:15:41.108Z,2.37
2018-09-25T14:18:14.838Z,4.50
2018-09-25T14:20:49.344Z,2.93
2018-09-25T14:23:23.179Z,7.60
2018-09-25T14:25:56.943Z,2.57
2018-09-25T14:28:30.718Z,3.77
2018-09-25T14:31:04.543Z,4.43
2018-09-25T14:33:38.192Z,5.17
2018-09-25T14:36:12.986Z,3.93
2018-09-25T14:38:47.482Z,4.73
2018-09-25T14:41:21.286Z,5.27
2018-09-25T14:43:55.959Z,3.53
2018-09-25T14:46:29.906Z,5.40
2018-09-25T14:49:04.391Z,4.03
2018-09-25T14:51:38.079Z,3.57
2018-09-25T14:54:11.899Z,3.17
2018-09-25T14:56:45.756Z,2.60
2018-09-25T14:59:19.558Z,7.03
2018-09-25T15:01:53.361Z,3.10
2018-09-25T15:04:27.965Z,4.77
2018-09-25T15:07:01.944Z,3.73
2018-09-25T15:09:35.613Z,3.20
2018-09-25T15:12:09.374Z,2.97
2018-09-25T15:14:43.198Z,4.23
2018-09-25T15:17:16.937Z,5.70
2018-09-25T15:19:50.845Z,5.70
2018-09-25T15:22:24.625Z,4.93
2018-09-25T15:24:58.428Z,4.37
2018-09-25T15:27:32.117Z,4.47
2018-09-25T15:30:06.448Z,5.40
2018-09-25T15:32:40.897Z,3.20
2018-09-25T15:35:14.724Z,4.63
2018-09-25T15:37:48.638Z,3.27
2018-09-25T15:40:22.480Z,6.43
2018-09-25T15:42:56.294Z,7.53
2018-09-25T15:45:30.043Z,5.70
2018-09-25T15:48:03.747Z,3.67
2018-09-25T15:50:37.484Z,2.97
2018-09-25T15:53:11.444Z,4.77
2018-09-25T15:55:45.086Z,3.83
2018-09-25T15:58:18.876Z,2.83
2018-09-25T16:00:52.671Z,6.10
2018-09-25T16:03:26.360Z,3.43
2018-09-25T16:06:00.144Z,3.47
2018-09-25T16:08:33.984Z,3.80
2018-09-25T16:11:07.711Z,4.23
2018-09-25T16:13:42.261Z,4.33
2018-09-25T16:16:16.283Z,7.47
2018-09-25T16:18:50.844Z,7.20
2018-09-25T16:21:25.377Z,4.70
2018-09-25T16:23:59.804Z,4.87
2018-09-25T16:26:34.150Z,4.10
2018-09-25T16:29:07.919Z,9.43
2018-09-25T16:31:41.832Z,6.17
2018-09-25T16:34:16.499Z,4.90
2018-09-25T16:36:50.443Z,3.17
2018-09-25T16:39:24.178Z,4.23
2018-09-25T16:41:58.083Z,4.77
2018-09-25T16:44:31.945Z,5.17
2018-09-25T16:47:05.638Z,4.40
2018-09-25T16:49:39.379Z,2.30
2018-09-25T16:52:13.468Z,2.97
2018-09-25T16:54:47.139Z,4.47
2018-09-25T16:57:21.120Z,4.17
2018-09-25T16:59:54.778Z,3.97
2018-09-25T17:02:28.579Z,3.97
2018-09-25T17:05:02.379Z,6.83
2018-09-25T17:07:36.164Z,5.13
2018-09-25T17:10:10.718Z,3.27
2018-09-25T17:12:44.467Z,5.73
2018-09-25T17:15:18.556Z,3.20
2018-09-25T17:17:52.752Z,4.40
2018-09-25T17:20:26.970Z,3.87
2018-09-25T17:23:00.690Z,4.93
2018-09-25T17:25:34.541Z,3.13
2018-09-25T17:28:08.366Z,5.47
2018-09-25T17:30:42.399Z,5.23
2018-09-25T17:33:16.154Z,3.13
2018-09-25T17:35:49.903Z,4.43
2018-09-25T17:38:23.817Z,5.63
2018-09-25T17:40:58.883Z,3.70
2018-09-25T17:43:32.649Z,2.97
2018-09-25T17:46:07.702Z,4.90
2018-09-25T17:48:42.106Z,4.13
2018-09-25T17:51:16.260Z,6.83
2018-09-25T17:53:50.215Z,2.67
2018-09-25T17:56:23.920Z,3.87
2018-09-25T17:58:57.752Z,6.63
2018-09-25T18:01:31.452Z,4.07
2018-09-25T18:04:05.264Z,4.63
2018-09-25T18:06:39.119Z,5.13
2018-09-25T18:09:14.388Z,4.23
2018-09-25T18:11:49.232Z,7.53
2018-09-25T18:14:23.035Z,8.87
2018-09-25T18:16:56.849Z,6.57
2018-09-25T18:19:30.635Z,6.73
2018-09-25T18:22:04.872Z,4.20
2018-09-25T18:24:39.422Z,5.23
2018-09-25T18:27:13.308Z,6.03
2018-09-25T18:29:47.232Z,5.87
2018-09-25T18:32:21.376Z,4.90
2018-09-25T18:34:55.355Z,6.20
2018-09-25T18:37:29.239Z,6.27
2018-09-25T18:40:02.959Z,5.23
2018-09-25T18:42:37.229Z,4.70
2018-09-25T18:45:11.260Z,5.13
2018-09-25T18:47:45.088Z,4.97
2018-09-25T18:50:18.775Z,6.17
2018-09-25T18:52:52.820Z,7.10
2018-09-25T18:55:26.721Z,16.20
2018-09-25T18:58:00.653Z,5.93
2018-09-25T19:00:35.284Z,5.43
2018-09-25T19:03:10.081Z,5.30
2018-09-25T19:05:43.754Z,8.60
2018-09-25T19:08:18.488Z,5.00
2018-09-25T19:10:52.284Z,7.10
2018-09-25T19:13:26.099Z,5.17
2018-09-25T19:15:59.871Z,6.00
2018-09-25T19:18:33.737Z,14.90
2018-09-25T19:21:07.731Z,8.17
2018-09-25T19:23:41.611Z,7.60
2018-09-25T19:26:15.496Z,10.67
2018-09-25T19:28:49.334Z,6.17
2018-09-25T19:31:23.158Z,8.90
2018-09-25T19:33:56.843Z,6.73
2018-09-25T19:36:31.400Z,7.07
2018-09-25T19:39:05.061Z,12.70
2018-09-25T19:41:39.436Z,7.93
2018-09-25T19:44:13.592Z,7.53
2018-09-25T19:46:47.448Z,8.70
2018-09-25T19:49:21.341Z,11.20
2018-09-25T19:51:55.721Z,10.40
2018-09-25T19:54:29.530Z,12.80
2018-09-25T19:57:04.277Z,14.83
2018-09-25T19:59:38.002Z,12.07
2018-09-25T20:02:11.890Z,8.40
2018-09-25T20:04:46.577Z,8.80
2018-09-25T20:07:20.890Z,9.87
2018-09-25T20:09:54.825Z,10.20
2018-09-25T20:12:29.553Z,11.60
2018-09-25T20:15:03.555Z,10.60
2018-09-25T20:17:37.383Z,12.07
2018-09-25T20:20:11.180Z,17.23
2018-09-25T20:22:46.026Z,8.60
2018-09-25T20:25:20.373Z,11.40
2018-09-25T20:27:54.398Z,10.13
2018-09-25T20:30:28.600Z,12.33
2018-09-25T20:33:02.593Z,12.47
2018-09-25T20:35:36.417Z,12.60
2018-09-25T20:38:10.291Z,15.70
2018-09-25T20:40:44.066Z,13.43
2018-09-25T20:43:18.506Z,12.70
2018-09-25T20:45:52.194Z,10.80
2018-09-25T20:48:26.033Z,13.50
2018-09-25T20:50:59.885Z,11.73
2018-09-25T20:53:34.451Z,9.27
2018-09-25T20:56:08.229Z,12.67
2018-09-25T20:58:42.043Z,10.53
2018-09-25T21:01:16.515Z,12.77
2018-09-25T21:03:50.123Z,12.40
2018-09-25T21:06:25.250Z,15.10
2018-09-25T21:09:00.593Z,15.27
2018-09-25T21:11:34.701Z,12.03
2018-09-25T21:14:08.640Z,14.80
2018-09-25T21:16:42.958Z,16.67
2018-09-25T21:19:17.911Z,16.33
2018-09-25T21:21:52.321Z,13.80
2018-09-25T21:24:26.384Z,17.60
2018-09-25T21:27:00.234Z,14.20
2018-09-25T21:29:34.081Z,17.93
2018-09-25T21:32:08.129Z,14.67
2018-09-25T21:34:41.955Z,15.73
2018-09-25T21:37:16.591Z,13.67
2018-09-25T21:39:50.407Z,13.47
2018-09-25T21:42:24.848Z,13.13
2018-09-25T21:44:58.548Z,16.67
2018-09-25T21:47:32.739Z,13.90
2018-09-25T21:50:06.388Z,15.57
2018-09-25T21:52:40.054Z,13.10
2018-09-25T21:55:14.054Z,17.17
2018-09-25T21:57:48.705Z,14.20
2018-09-25T22:00:22.308Z,16.43
2018-09-25T22:02:56.030Z,14.17
2018-09-25T22:05:29.770Z,14.63
2018-09-25T22:08:03.613Z,11.83
2018-09-25T22:10:37.562Z,15.30
2018-09-25T22:13:12.138Z,14.23
2018-09-25T22:15:45.867Z,14.90
2018-09-25T22:18:20.416Z,14.33
2018-09-25T22:20:54.124Z,15.17
2018-09-25T22:23:27.973Z,13.80
2018-09-25T22:26:01.974Z,16.43
2018-09-25T22:28:36.047Z,16.13
2018-09-25T22:31:09.792Z,18.97
2018-09-25T22:33:43.745Z,14.17
2018-09-25T22:36:17.734Z,17.30
2018-09-25T22:38:52.226Z,17.60
2018-09-25T22:41:26.060Z,15.63
2018-09-25T22:43:59.752Z,19.20
2018-09-25T22:46:33.546Z,15.90
2018-09-25T22:49:07.413Z,16.23
2018-09-25T22:51:41.815Z,19.00
2018-09-25T22:54:15.868Z,17.33
2018-09-25T22:56:49.581Z,16.63
2018-09-25T22:59:23.308Z,15.47
2018-09-25T23:01:57.578Z,17.03
2018-09-25T23:04:31.510Z,16.60
2018-09-25T23:07:05.288Z,18.87
2018-09-25T23:09:39.019Z,20.33
2018-09-25T23:12:13.182Z,16.47
2018-09-25T23:14:47.276Z,19.17
2018-09-25T23:17:21.339Z,19.87
2018-09-25T23:19:55.198Z,20.30
2018-09-25T23:22:28.991Z,17.87
2018-09-25T23:25:02.671Z,19.77
2018-09-25T23:27:36.960Z,19.57
2018-09-25T23:30:10.785Z,18.20
2018-09-25T23:32:44.558Z,21.57
2018-09-25T23:35:18.351Z,23.67
2018-09-25T23:37:52.248Z,23.00
2018-09-25T23:41:26.017Z,23.20
2018-09-25T23:44:01.810Z,18.80
2018-09-25T23:46:34.443Z,18.20
2018-09-25T23:49:07.964Z,20.97
2018-09-25T23:51:41.463Z,21.83
2018-09-25T23:55:13.668Z,21.00
2018-09-25T23:57:47.826Z,20.10
